sensor_id;sensor_type;location;lat;lon;timestamp;pressure;altitude;pressure_sealevel;temperature;humidity
55468;BME280;41332;42.702;23.200;2022-11-15T00:00:33;94557.22;;;3.72;78.67
55468;BME280;41332;42.702;23.200;2022-11-15T00:02:59;94564.00;;;3.73;78.39
55468;BME280;41332;42.702;23.200;2022-11-15T00:05:24;94557.22;;;3.72;78.34
55468;BME280;41332;42.702;23.200;2022-11-15T00:07:50;94560.38;;;3.64;78.21
55468;BME280;41332;42.702;23.200;2022-11-15T00:10:16;94560.66;;;3.62;78.50
55468;BME280;41332;42.702;23.200;2022-11-15T00:12:41;94557.78;;;3.64;78.07
55468;BME280;41332;42.702;23.200;2022-11-15T00:15:07;94547.38;;;3.64;77.97
55468;BME280;41332;42.702;23.200;2022-11-15T00:17:32;94547.88;;;3.66;77.39
55468;BME280;41332;42.702;23.200;2022-11-15T00:19:58;94551.78;;;3.63;77.02
55468;BME280;41332;42.702;23.200;2022-11-15T00:22:23;94550.25;;;3.62;76.15
55468;BME280;41332;42.702;23.200;2022-11-15T00:24:48;94540.09;;;3.61;76.40
55468;BME280;41332;42.702;23.200;2022-11-15T00:27:14;94544.53;;;3.60;75.99
55468;BME280;41332;42.702;23.200;2022-11-15T00:29:42;94551.81;;;3.53;76.41
55468;BME280;41332;42.702;23.200;2022-11-15T00:32:11;94549.03;;;3.24;77.48
55468;BME280;41332;42.702;23.200;2022-11-15T00:34:37;94548.47;;;3.37;76.80
55468;BME280;41332;42.702;23.200;2022-11-15T00:37:03;94546.66;;;3.38;77.21
55468;BME280;41332;42.702;23.200;2022-11-15T00:39:28;94547.44;;;3.38;77.95
55468;BME280;41332;42.702;23.200;2022-11-15T00:41:53;94543.81;;;3.39;77.34
55468;BME280;41332;42.702;23.200;2022-11-15T00:44:19;94537.34;;;3.37;77.53
55468;BME280;41332;42.702;23.200;2022-11-15T00:46:44;94539.66;;;3.33;77.57
55468;BME280;41332;42.702;23.200;2022-11-15T00:49:12;94537.59;;;3.30;77.90
55468;BME280;41332;42.702;23.200;2022-11-15T00:51:38;94532.94;;;3.22;78.36
55468;BME280;41332;42.702;23.200;2022-11-15T00:54:03;94528.53;;;3.17;78.76
55468;BME280;41332;42.702;23.200;2022-11-15T00:56:28;94537.38;;;3.11;79.69
55468;BME280;41332;42.702;23.200;2022-11-15T00:58:54;94529.84;;;3.20;79.18
55468;BME280;41332;42.702;23.200;2022-11-15T01:01:19;94528.25;;;3.24;79.85
55468;BME280;41332;42.702;23.200;2022-11-15T01:03:45;94523.06;;;3.29;79.71
55468;BME280;41332;42.702;23.200;2022-11-15T01:06:10;94528.25;;;3.24;79.56
55468;BME280;41332;42.702;23.200;2022-11-15T01:08:39;94530.88;;;3.19;79.52
55468;BME280;41332;42.702;23.200;2022-11-15T01:11:08;94521.50;;;3.23;79.86
55468;BME280;41332;42.702;23.200;2022-11-15T01:13:35;94535.25;;;3.23;79.75
55468;BME280;41332;42.702;23.200;2022-11-15T01:16:08;94529.81;;;3.25;79.46
55468;BME280;41332;42.702;23.200;2022-11-15T01:18:34;94527.22;;;3.25;79.21
55468;BME280;41332;42.702;23.200;2022-11-15T01:21:04;94533.47;;;3.13;79.27
55468;BME280;41332;42.702;23.200;2022-11-15T01:23:30;94527.25;;;3.04;79.15
55468;BME280;41332;42.702;23.200;2022-11-15T01:25:59;94530.09;;;3.03;79.68
55468;BME280;41332;42.702;23.200;2022-11-15T01:28:25;94519.69;;;3.08;79.72
55468;BME280;41332;42.702;23.200;2022-11-15T01:30:50;94521.53;;;3.02;79.72
55468;BME280;41332;42.702;23.200;2022-11-15T01:33:16;94526.47;;;3.04;79.66
55468;BME280;41332;42.702;23.200;2022-11-15T01:35:41;94514.78;;;2.91;79.53
55468;BME280;41332;42.702;23.200;2022-11-15T01:38:07;94508.56;;;2.92;80.13
55468;BME280;41332;42.702;23.200;2022-11-15T01:40:32;94519.47;;;3.04;79.81
55468;BME280;41332;42.702;23.200;2022-11-15T01:42:57;94512.72;;;2.98;79.53
55468;BME280;41332;42.702;23.200;2022-11-15T01:45:23;94511.94;;;2.97;79.54
55468;BME280;41332;42.702;23.200;2022-11-15T01:47:51;94507.28;;;2.89;79.93
55468;BME280;41332;42.702;23.200;2022-11-15T01:50:21;94509.59;;;2.86;80.29
55468;BME280;41332;42.702;23.200;2022-11-15T01:52:48;94514.28;;;2.78;80.23
55468;BME280;41332;42.702;23.200;2022-11-15T01:55:21;94506.75;;;2.87;80.82
55468;BME280;41332;42.702;23.200;2022-11-15T01:57:51;94514.03;;;2.95;79.95
55468;BME280;41332;42.702;23.200;2022-11-15T02:00:18;94515.06;;;3.00;80.04
55468;BME280;41332;42.702;23.200;2022-11-15T02:02:43;94516.34;;;2.97;80.44
55468;BME280;41332;42.702;23.200;2022-11-15T02:05:09;94511.16;;;2.97;80.52
55468;BME280;41332;42.702;23.200;2022-11-15T02:07:36;94505.72;;;2.93;80.24
55468;BME280;41332;42.702;23.200;2022-11-15T02:10:06;94510.38;;;2.96;79.83
55468;BME280;41332;42.702;23.200;2022-11-15T02:12:33;94510.63;;;3.00;79.80
55468;BME280;41332;42.702;23.200;2022-11-15T02:14:59;94503.38;;;3.02;79.77
55468;BME280;41332;42.702;23.200;2022-11-15T02:31:00;94496.63;;;2.86;79.54
55468;BME280;41332;42.702;23.200;2022-11-15T02:34:08;94498.97;;;2.82;79.50
55468;BME280;41332;42.702;23.200;2022-11-15T02:39:49;94487.03;;;2.81;79.33
55468;BME280;41332;42.702;23.200;2022-11-15T02:42:49;94491.44;;;2.80;79.92
55468;BME280;41332;42.702;23.200;2022-11-15T02:45:40;94495.06;;;2.79;79.80
55468;BME280;41332;42.702;23.200;2022-11-15T02:48:09;94498.19;;;2.82;80.18
55468;BME280;41332;42.702;23.200;2022-11-15T02:50:36;94496.91;;;2.84;80.08
55468;BME280;41332;42.702;23.200;2022-11-15T02:53:02;94487.81;;;2.82;79.72
55468;BME280;41332;42.702;23.200;2022-11-15T02:55:40;94493.53;;;2.84;80.47
55468;BME280;41332;42.702;23.200;2022-11-15T03:04:02;94512.19;;;2.91;80.34
55468;BME280;41332;42.702;23.200;2022-11-15T03:06:42;94497.41;;;2.91;80.05
55468;BME280;41332;42.702;23.200;2022-11-15T03:11:50;94495.84;;;2.90;80.73
55468;BME280;41332;42.702;23.200;2022-11-15T03:14:41;94487.81;;;2.92;80.15
55468;BME280;41332;42.702;23.200;2022-11-15T03:17:17;94484.19;;;2.93;80.30
55468;BME280;41332;42.702;23.200;2022-11-15T03:19:47;94488.56;;;2.97;79.07
55468;BME280;41332;42.702;23.200;2022-11-15T03:22:15;94486.78;;;2.98;79.26
55468;BME280;41332;42.702;23.200;2022-11-15T03:24:43;94486.78;;;2.93;79.11
55468;BME280;41332;42.702;23.200;2022-11-15T03:27:14;94491.69;;;2.94;78.88
55468;BME280;41332;42.702;23.200;2022-11-15T03:29:45;94485.22;;;2.97;78.80
55468;BME280;41332;42.702;23.200;2022-11-15T03:32:22;94479.75;;;2.99;78.76
55468;BME280;41332;42.702;23.200;2022-11-15T03:34:53;94480.53;;;3.04;79.33
55468;BME280;41332;42.702;23.200;2022-11-15T03:37:22;94477.41;;;3.07;79.38
55468;BME280;41332;42.702;23.200;2022-11-15T03:39:50;94481.56;;;3.08;79.27
55468;BME280;41332;42.702;23.200;2022-11-15T03:42:19;94483.88;;;3.10;79.71
55468;BME280;41332;42.702;23.200;2022-11-15T03:45:32;94480.53;;;3.15;79.42
55468;BME280;41332;42.702;23.200;2022-11-15T03:47:59;94472.19;;;3.18;79.36
55468;BME280;41332;42.702;23.200;2022-11-15T03:50:27;94469.06;;;3.21;79.99
55468;BME280;41332;42.702;23.200;2022-11-15T03:52:54;94468.28;;;3.20;80.05
55468;BME280;41332;42.702;23.200;2022-11-15T03:55:21;94468.56;;;3.24;80.05
55468;BME280;41332;42.702;23.200;2022-11-15T03:57:49;94468.53;;;3.29;80.31
55468;BME280;41332;42.702;23.200;2022-11-15T04:00:15;94461.78;;;3.33;80.00
55468;BME280;41332;42.702;23.200;2022-11-15T04:02:41;94459.16;;;3.33;80.42
55468;BME280;41332;42.702;23.200;2022-11-15T04:05:06;94464.88;;;3.35;80.11
55468;BME280;41332;42.702;23.200;2022-11-15T04:07:32;94457.84;;;3.41;80.53
55468;BME280;41332;42.702;23.200;2022-11-15T04:09:57;94456.53;;;3.43;80.46
55468;BME280;41332;42.702;23.200;2022-11-15T04:12:30;94456.28;;;3.45;80.46
55468;BME280;41332;42.702;23.200;2022-11-15T04:15:03;94469.00;;;3.46;80.50
55468;BME280;41332;42.702;23.200;2022-11-15T04:17:32;94462.00;;;3.47;80.90
55468;BME280;41332;42.702;23.200;2022-11-15T04:19:58;94460.91;;;3.53;81.05
55468;BME280;41332;42.702;23.200;2022-11-15T04:22:41;94463.00;;;3.56;81.01
55468;BME280;41332;42.702;23.200;2022-11-15T04:25:25;94459.59;;;3.56;81.55
55468;BME280;41332;42.702;23.200;2022-11-15T04:27:51;94452.38;;;3.47;81.35
55468;BME280;41332;42.702;23.200;2022-11-15T04:30:16;94444.81;;;3.51;81.84
55468;BME280;41332;42.702;23.200;2022-11-15T04:32:41;94444.56;;;3.53;81.86
55468;BME280;41332;42.702;23.200;2022-11-15T04:35:07;94461.16;;;3.57;82.00
55468;BME280;41332;42.702;23.200;2022-11-15T04:37:33;94457.25;;;3.59;82.53
55468;BME280;41332;42.702;23.200;2022-11-15T04:39:58;94449.19;;;3.61;82.10
55468;BME280;41332;42.702;23.200;2022-11-15T04:42:23;94462.16;;;3.66;83.00
55468;BME280;41332;42.702;23.200;2022-11-15T04:44:49;94457.47;;;3.68;83.01
55468;BME280;41332;42.702;23.200;2022-11-15T04:47:14;94461.09;;;3.72;83.12
55468;BME280;41332;42.702;23.200;2022-11-15T04:49:39;94453.31;;;3.72;82.96
55468;BME280;41332;42.702;23.200;2022-11-15T04:52:05;94456.41;;;3.74;83.21
55468;BME280;41332;42.702;23.200;2022-11-15T04:54:30;94455.88;;;3.77;83.36
55468;BME280;41332;42.702;23.200;2022-11-15T04:56:55;94461.31;;;3.81;82.70
55468;BME280;41332;42.702;23.200;2022-11-15T04:59:21;94464.69;;;3.82;83.19
55468;BME280;41332;42.702;23.200;2022-11-15T05:01:46;94461.56;;;3.85;83.26
55468;BME280;41332;42.702;23.200;2022-11-15T05:04:11;94459.72;;;3.85;83.18
55468;BME280;41332;42.702;23.200;2022-11-15T05:06:50;94459.72;;;3.90;82.39
55468;BME280;41332;42.702;23.200;2022-11-15T05:09:20;94458.66;;;3.91;82.92
55468;BME280;41332;42.702;23.200;2022-11-15T05:11:47;94455.56;;;3.84;83.39
55468;BME280;41332;42.702;23.200;2022-11-15T05:14:13;94455.34;;;3.86;83.15
55468;BME280;41332;42.702;23.200;2022-11-15T05:16:39;94451.66;;;3.87;83.23
55468;BME280;41332;42.702;23.200;2022-11-15T05:19:05;94450.63;;;3.88;83.88
55468;BME280;41332;42.702;23.200;2022-11-15T05:21:31;94451.91;;;3.90;83.91
55468;BME280;41332;42.702;23.200;2022-11-15T05:23:56;94444.09;;;3.95;83.28
55468;BME280;41332;42.702;23.200;2022-11-15T05:26:22;94440.19;;;3.93;83.75
55468;BME280;41332;42.702;23.200;2022-11-15T05:28:55;94450.84;;;3.96;83.61
55468;BME280;41332;42.702;23.200;2022-11-15T05:31:21;94437.03;;;4.01;83.87
55468;BME280;41332;42.702;23.200;2022-11-15T05:33:47;94443.78;;;4.02;83.85
55468;BME280;41332;42.702;23.200;2022-11-15T05:36:20;94442.81;;;3.93;84.01
55468;BME280;41332;42.702;23.200;2022-11-15T05:38:48;94441.72;;;3.99;83.86
55468;BME280;41332;42.702;23.200;2022-11-15T05:41:14;94445.19;;;3.84;84.40
55468;BME280;41332;42.702;23.200;2022-11-15T05:43:42;94449.03;;;3.92;84.21
55468;BME280;41332;42.702;23.200;2022-11-15T05:46:09;94451.88;;;3.95;84.61
55468;BME280;41332;42.702;23.200;2022-11-15T05:48:35;94455.09;;;3.77;84.48
55468;BME280;41332;42.702;23.200;2022-11-15T05:51:03;94459.88;;;3.54;85.02
55468;BME280;41332;42.702;23.200;2022-11-15T05:53:30;94465.84;;;3.60;84.98
55468;BME280;41332;42.702;23.200;2022-11-15T05:55:56;94462.44;;;3.65;85.17
55468;BME280;41332;42.702;23.200;2022-11-15T05:58:21;94457.59;;;3.42;85.29
55468;BME280;41332;42.702;23.200;2022-11-15T06:00:47;94467.69;;;3.44;85.65
55468;BME280;41332;42.702;23.200;2022-11-15T06:03:13;94471.09;;;3.44;85.60
55468;BME280;41332;42.702;23.200;2022-11-15T06:05:39;94473.91;;;3.53;85.60
55468;BME280;41332;42.702;23.200;2022-11-15T06:08:05;94465.88;;;3.50;85.79
55468;BME280;41332;42.702;23.200;2022-11-15T06:10:30;94469.47;;;3.59;85.10
55468;BME280;41332;42.702;23.200;2022-11-15T06:13:00;94471.31;;;3.43;85.24
55468;BME280;41332;42.702;23.200;2022-11-15T06:15:26;94463.34;;;3.34;85.59
55468;BME280;41332;42.702;23.200;2022-11-15T06:17:52;94457.94;;;3.10;86.22
55468;BME280;41332;42.702;23.200;2022-11-15T06:20:17;94458.69;;;3.10;86.71
55468;BME280;41332;42.702;23.200;2022-11-15T06:22:43;94463.88;;;3.21;86.65
55468;BME280;41332;42.702;23.200;2022-11-15T06:25:08;94459.78;;;2.99;86.84
55468;BME280;41332;42.702;23.200;2022-11-15T06:27:34;94456.38;;;2.99;88.09
55468;BME280;41332;42.702;23.200;2022-11-15T06:29:59;94458.19;;;3.19;87.09
55468;BME280;41332;42.702;23.200;2022-11-15T06:32:24;94454.25;;;3.32;87.64
55468;BME280;41332;42.702;23.200;2022-11-15T06:34:50;94456.34;;;3.19;87.17
55468;BME280;41332;42.702;23.200;2022-11-15T06:37:15;94461.81;;;3.18;87.42
55468;BME280;41332;42.702;23.200;2022-11-15T06:39:41;94458.72;;;3.05;87.57
55468;BME280;41332;42.702;23.200;2022-11-15T06:42:08;94458.50;;;2.91;88.02
55468;BME280;41332;42.702;23.200;2022-11-15T06:44:33;94451.75;;;2.70;88.92
55468;BME280;41332;42.702;23.200;2022-11-15T06:46:59;94462.16;;;2.59;89.02
55468;BME280;41332;42.702;23.200;2022-11-15T06:49:24;94459.81;;;2.63;90.11
55468;BME280;41332;42.702;23.200;2022-11-15T06:51:49;94460.09;;;2.56;89.92
55468;BME280;41332;42.702;23.200;2022-11-15T06:54:15;94454.09;;;2.51;90.26
55468;BME280;41332;42.702;23.200;2022-11-15T06:56:40;94454.09;;;2.56;90.27
55468;BME280;41332;42.702;23.200;2022-11-15T06:59:05;94450.75;;;2.50;91.46
55468;BME280;41332;42.702;23.200;2022-11-15T07:01:31;94447.34;;;2.50;90.97
55468;BME280;41332;42.702;23.200;2022-11-15T07:03:56;94457.50;;;2.61;91.85
55468;BME280;41332;42.702;23.200;2022-11-15T07:06:22;94448.91;;;2.61;91.00
55468;BME280;41332;42.702;23.200;2022-11-15T07:08:50;94448.91;;;2.56;91.51
55468;BME280;41332;42.702;23.200;2022-11-15T07:11:15;94451.50;;;2.66;91.35
55468;BME280;41332;42.702;23.200;2022-11-15T07:13:41;94450.47;;;2.52;91.90
55468;BME280;41332;42.702;23.200;2022-11-15T07:16:09;94450.47;;;2.52;92.18
55468;BME280;41332;42.702;23.200;2022-11-15T07:18:36;94450.72;;;2.76;91.94
55468;BME280;41332;42.702;23.200;2022-11-15T07:21:08;94453.31;;;2.81;91.21
55468;BME280;41332;42.702;23.200;2022-11-15T07:23:39;94458.75;;;2.79;91.15
55468;BME280;41332;42.702;23.200;2022-11-15T07:26:05;94458.78;;;2.64;91.67
55468;BME280;41332;42.702;23.200;2022-11-15T07:28:31;94462.13;;;2.95;91.26
55468;BME280;41332;42.702;23.200;2022-11-15T07:30:56;94457.16;;;3.15;91.26
55468;BME280;41332;42.702;23.200;2022-11-15T07:33:21;94463.88;;;3.10;90.68
55468;BME280;41332;42.702;23.200;2022-11-15T07:35:47;94454.78;;;3.23;90.93
55468;BME280;41332;42.702;23.200;2022-11-15T07:38:17;94455.59;;;3.08;90.60
55468;BME280;41332;42.702;23.200;2022-11-15T07:40:46;94450.19;;;2.84;90.82
55468;BME280;41332;42.702;23.200;2022-11-15T07:43:11;94455.59;;;3.08;91.36
55468;BME280;41332;42.702;23.200;2022-11-15T07:45:42;94462.34;;;3.09;90.71
55468;BME280;41332;42.702;23.200;2022-11-15T07:48:07;94467.50;;;3.25;90.54
55468;BME280;41332;42.702;23.200;2022-11-15T07:50:33;94464.59;;;3.42;90.53
55468;BME280;41332;42.702;23.200;2022-11-15T07:52:59;94456.00;;;3.46;90.43
55468;BME280;41332;42.702;23.200;2022-11-15T07:55:26;94453.13;;;3.53;89.82
55468;BME280;41332;42.702;23.200;2022-11-15T07:57:52;94458.59;;;3.46;89.80
55468;BME280;41332;42.702;23.200;2022-11-15T08:00:19;94447.94;;;3.48;90.26
55468;BME280;41332;42.702;23.200;2022-11-15T08:02:44;94455.75;;;3.38;89.85
55468;BME280;41332;42.702;23.200;2022-11-15T08:05:10;94446.94;;;3.34;90.64
55468;BME280;41332;42.702;23.200;2022-11-15T08:07:35;94438.66;;;3.37;90.18
55468;BME280;41332;42.702;23.200;2022-11-15T08:10:01;94450.75;;;3.57;90.58
55468;BME280;41332;42.702;23.200;2022-11-15T08:12:27;94444.25;;;3.59;89.83
55468;BME280;41332;42.702;23.200;2022-11-15T08:14:54;94437.84;;;3.36;89.56
55468;BME280;41332;42.702;23.200;2022-11-15T08:17:20;94435.56;;;3.19;90.28
55468;BME280;41332;42.702;23.200;2022-11-15T08:19:45;94435.00;;;3.38;91.14
55468;BME280;41332;42.702;23.200;2022-11-15T08:22:11;94431.84;;;3.51;90.60
55468;BME280;41332;42.702;23.200;2022-11-15T08:24:38;94438.81;;;3.56;90.40
55468;BME280;41332;42.702;23.200;2022-11-15T08:27:03;94434.03;;;3.78;90.03
55468;BME280;41332;42.702;23.200;2022-11-15T08:29:28;94433.94;;;3.99;89.42
55468;BME280;41332;42.702;23.200;2022-11-15T08:31:55;94424.00;;;4.06;88.84
55468;BME280;41332;42.702;23.200;2022-11-15T08:34:21;94429.09;;;4.22;88.19
55468;BME280;41332;42.702;23.200;2022-11-15T08:36:46;94422.50;;;4.35;88.00
55468;BME280;41332;42.702;23.200;2022-11-15T08:39:12;94424.56;;;4.38;87.77
55468;BME280;41332;42.702;23.200;2022-11-15T08:41:38;94418.50;;;4.13;88.00
55468;BME280;41332;42.702;23.200;2022-11-15T08:44:03;94422.38;;;4.21;88.29
55468;BME280;41332;42.702;23.200;2022-11-15T08:46:29;94422.75;;;4.38;87.87
55468;BME280;41332;42.702;23.200;2022-11-15T08:48:54;94421.31;;;4.56;87.37
55468;BME280;41332;42.702;23.200;2022-11-15T08:51:19;94411.28;;;4.39;87.43
55468;BME280;41332;42.702;23.200;2022-11-15T08:53:45;94408.91;;;4.08;88.10
55468;BME280;41332;42.702;23.200;2022-11-15T08:56:12;94403.22;;;4.01;89.00
55468;BME280;41332;42.702;23.200;2022-11-15T08:58:38;94405.09;;;4.35;87.90
55468;BME280;41332;42.702;23.200;2022-11-15T09:01:04;94410.56;;;4.34;88.00
55468;BME280;41332;42.702;23.200;2022-11-15T09:03:30;94410.69;;;4.48;87.60
55468;BME280;41332;42.702;23.200;2022-11-15T09:05:58;94395.31;;;4.51;87.46
55468;BME280;41332;42.702;23.200;2022-11-15T09:08:24;94405.16;;;4.25;87.80
55468;BME280;41332;42.702;23.200;2022-11-15T09:10:50;94399.06;;;4.40;87.34
55468;BME280;41332;42.702;23.200;2022-11-15T09:13:16;94391.97;;;4.51;87.08
55468;BME280;41332;42.702;23.200;2022-11-15T09:15:41;94393.25;;;4.53;86.84
55468;BME280;41332;42.702;23.200;2022-11-15T09:18:07;94393.69;;;4.60;86.82
55468;BME280;41332;42.702;23.200;2022-11-15T09:20:33;94383.91;;;4.76;87.26
55468;BME280;41332;42.702;23.200;2022-11-15T09:23:01;94387.47;;;4.86;86.92
55468;BME280;41332;42.702;23.200;2022-11-15T09:25:27;94376.94;;;4.96;86.39
55468;BME280;41332;42.702;23.200;2022-11-15T09:27:53;94363.38;;;4.99;86.12
55468;BME280;41332;42.702;23.200;2022-11-15T09:30:19;94361.56;;;5.00;85.20
55468;BME280;41332;42.702;23.200;2022-11-15T09:32:47;94363.88;;;5.01;85.25
55468;BME280;41332;42.702;23.200;2022-11-15T09:35:12;94364.47;;;4.93;85.02
55468;BME280;41332;42.702;23.200;2022-11-15T09:37:38;94366.50;;;4.72;85.42
55468;BME280;41332;42.702;23.200;2022-11-15T09:40:03;94370.34;;;4.79;86.57
55468;BME280;41332;42.702;23.200;2022-11-15T09:50:52;94347.84;;;4.89;85.56
55468;BME280;41332;42.702;23.200;2022-11-15T09:53:31;94342.44;;;4.85;85.98
55468;BME280;41332;42.702;23.200;2022-11-15T09:56:02;94340.63;;;4.86;86.44
55468;BME280;41332;42.702;23.200;2022-11-15T10:04:22;94328.53;;;4.95;85.78
55468;BME280;41332;42.702;23.200;2022-11-15T10:07:19;94331.97;;;4.90;85.78
55468;BME280;41332;42.702;23.200;2022-11-15T10:10:04;94324.25;;;4.80;87.46
55468;BME280;41332;42.702;23.200;2022-11-15T10:12:33;94324.88;;;4.96;87.01
55468;BME280;41332;42.702;23.200;2022-11-15T10:15:14;94319.69;;;4.96;86.78
55468;BME280;41332;42.702;23.200;2022-11-15T10:18:09;94319.56;;;5.06;86.32
55468;BME280;41332;42.702;23.200;2022-11-15T10:20:49;94311.81;;;5.01;86.37
55468;BME280;41332;42.702;23.200;2022-11-15T10:23:18;94315.56;;;5.14;87.21
55468;BME280;41332;42.702;23.200;2022-11-15T10:25:45;94312.09;;;5.00;87.41
55468;BME280;41332;42.702;23.200;2022-11-15T10:28:36;94305.97;;;5.09;88.10
55468;BME280;41332;42.702;23.200;2022-11-15T10:31:02;94293.88;;;5.19;86.66
55468;BME280;41332;42.702;23.200;2022-11-15T10:33:35;94295.00;;;5.32;87.29
55468;BME280;41332;42.702;23.200;2022-11-15T10:38:55;94283.63;;;5.47;85.36
55468;BME280;41332;42.702;23.200;2022-11-15T10:46:43;94261.69;;;5.67;85.13
55468;BME280;41332;42.702;23.200;2022-11-15T10:49:25;94267.09;;;5.89;85.29
55468;BME280;41332;42.702;23.200;2022-11-15T10:52:13;94259.88;;;6.00;83.67
55468;BME280;41332;42.702;23.200;2022-11-15T10:57:23;94258.59;;;5.98;84.88
55468;BME280;41332;42.702;23.200;2022-11-15T10:59:59;94253.19;;;6.27;83.20
55468;BME280;41332;42.702;23.200;2022-11-15T11:02:40;94252.56;;;6.02;83.84
55468;BME280;41332;42.702;23.200;2022-11-15T11:05:30;94243.44;;;6.19;83.88
55468;BME280;41332;42.702;23.200;2022-11-15T11:08:01;94236.19;;;6.43;83.38
55468;BME280;41332;42.702;23.200;2022-11-15T11:10:27;94237.56;;;6.55;83.27
55468;BME280;41332;42.702;23.200;2022-11-15T11:12:52;94232.41;;;6.64;81.90
55468;BME280;41332;42.702;23.200;2022-11-15T11:15:18;94229.50;;;6.79;81.82
55468;BME280;41332;42.702;23.200;2022-11-15T11:18:07;94225.13;;;7.02;81.14
55468;BME280;41332;42.702;23.200;2022-11-15T11:20:45;94224.38;;;6.88;80.02
55468;BME280;41332;42.702;23.200;2022-11-15T11:31:45;94202.41;;;7.03;80.52
55468;BME280;41332;42.702;23.200;2022-11-15T11:34:34;94190.31;;;6.93;80.34
55468;BME280;41332;42.702;23.200;2022-11-15T11:38:10;94186.94;;;6.92;79.97
55468;BME280;41332;42.702;23.200;2022-11-15T11:43:25;94173.44;;;6.76;80.05
55468;BME280;41332;42.702;23.200;2022-11-15T11:49:02;94167.78;;;6.83;79.92
55468;BME280;41332;42.702;23.200;2022-11-15T11:57:33;94161.78;;;6.97;78.38
55468;BME280;41332;42.702;23.200;2022-11-15T12:00:26;94158.34;;;7.10;78.16
55468;BME280;41332;42.702;23.200;2022-11-15T12:03:11;94150.50;;;7.10;78.33
55468;BME280;41332;42.702;23.200;2022-11-15T12:05:46;94139.59;;;7.08;77.54
55468;BME280;41332;42.702;23.200;2022-11-15T12:13:35;94131.06;;;7.16;76.98
55468;BME280;41332;42.702;23.200;2022-11-15T12:18:43;94111.63;;;7.08;77.69
55468;BME280;41332;42.702;23.200;2022-11-15T12:23:58;94113.97;;;7.33;75.95
55468;BME280;41332;42.702;23.200;2022-11-15T12:27:12;94110.09;;;7.30;75.44
55468;BME280;41332;42.702;23.200;2022-11-15T12:29:27;94113.72;;;7.20;75.72
55468;BME280;41332;42.702;23.200;2022-11-15T12:31:55;94109.91;;;7.26;76.10
55468;BME280;41332;42.702;23.200;2022-11-15T12:36:53;94102.91;;;7.36;75.85
55468;BME280;41332;42.702;23.200;2022-11-15T12:39:19;94099.53;;;7.35;76.24
55468;BME280;41332;42.702;23.200;2022-11-15T13:17:54;94058.75;;;6.80;77.04
55468;BME280;41332;42.702;23.200;2022-11-15T13:20:22;94071.75;;;6.94;76.90
55468;BME280;41332;42.702;23.200;2022-11-15T13:22:58;94059.88;;;6.88;77.40
55468;BME280;41332;42.702;23.200;2022-11-15T13:30:40;94049.69;;;7.00;77.20
55468;BME280;41332;42.702;23.200;2022-11-15T13:33:16;94056.59;;;7.05;76.71
55468;BME280;41332;42.702;23.200;2022-11-15T13:35:46;94050.56;;;7.18;76.15
55468;BME280;41332;42.702;23.200;2022-11-15T13:38:33;94047.47;;;7.16;76.24
55468;BME280;41332;42.702;23.200;2022-11-15T13:43:41;94053.69;;;7.06;76.83
55468;BME280;41332;42.702;23.200;2022-11-15T13:46:15;94052.38;;;7.18;75.74
55468;BME280;41332;42.702;23.200;2022-11-15T13:48:42;94046.53;;;7.12;75.73
55468;BME280;41332;42.702;23.200;2022-11-15T13:51:15;94045.84;;;7.06;76.81
55468;BME280;41332;42.702;23.200;2022-11-15T13:53:46;94048.88;;;7.00;76.43
55468;BME280;41332;42.702;23.200;2022-11-15T13:56:15;94047.94;;;6.96;76.84
55468;BME280;41332;42.702;23.200;2022-11-15T13:58:42;94050.78;;;6.85;76.97
55468;BME280;41332;42.702;23.200;2022-11-15T14:01:14;94053.78;;;6.92;77.08
55468;BME280;41332;42.702;23.200;2022-11-15T14:03:47;94050.91;;;7.03;76.27
55468;BME280;41332;42.702;23.200;2022-11-15T14:06:16;94049.69;;;7.00;76.69
55468;BME280;41332;42.702;23.200;2022-11-15T14:08:57;94040.84;;;6.87;76.58
55468;BME280;41332;42.702;23.200;2022-11-15T14:11:23;94042.03;;;6.81;76.74
55468;BME280;41332;42.702;23.200;2022-11-15T14:16:39;94040.69;;;6.70;77.42
55468;BME280;41332;42.702;23.200;2022-11-15T14:19:06;94035.09;;;6.63;77.43
55468;BME280;41332;42.702;23.200;2022-11-15T14:21:32;94035.19;;;6.71;76.84
55468;BME280;41332;42.702;23.200;2022-11-15T14:24:18;94037.56;;;6.82;76.61
55468;BME280;41332;42.702;23.200;2022-11-15T14:26:44;94035.66;;;6.73;77.24
55468;BME280;41332;42.702;23.200;2022-11-15T14:29:26;94033.69;;;6.79;76.43
55468;BME280;41332;42.702;23.200;2022-11-15T14:31:53;94039.47;;;6.90;76.48
55468;BME280;41332;42.702;23.200;2022-11-15T14:34:19;94035.50;;;6.92;75.97
55468;BME280;41332;42.702;23.200;2022-11-15T14:36:46;94043.97;;;6.98;76.15
55468;BME280;41332;42.702;23.200;2022-11-15T14:39:12;94034.59;;;6.97;75.79
55468;BME280;41332;42.702;23.200;2022-11-15T14:41:37;94053.78;;;6.92;75.87
55468;BME280;41332;42.702;23.200;2022-11-15T14:44:03;94035.78;;;6.91;75.98
55468;BME280;41332;42.702;23.200;2022-11-15T14:46:29;94039.63;;;6.93;76.13
55468;BME280;41332;42.702;23.200;2022-11-15T14:48:54;94033.03;;;6.96;75.60
55468;BME280;41332;42.702;23.200;2022-11-15T14:51:20;94036.91;;;6.99;75.18
55468;BME280;41332;42.702;23.200;2022-11-15T14:53:46;94047.34;;;6.99;75.40
55468;BME280;41332;42.702;23.200;2022-11-15T14:56:12;94037.19;;;6.97;74.98
55468;BME280;41332;42.702;23.200;2022-11-15T14:58:38;94040.88;;;6.96;75.03
55468;BME280;41332;42.702;23.200;2022-11-15T15:03:41;94030.84;;;6.89;74.75
55468;BME280;41332;42.702;23.200;2022-11-15T15:06:06;94022.56;;;6.87;74.56
55468;BME280;41332;42.702;23.200;2022-11-15T15:08:34;94024.88;;;6.89;74.51
55468;BME280;41332;42.702;23.200;2022-11-15T15:10:59;94017.63;;;6.86;74.89
55468;BME280;41332;42.702;23.200;2022-11-15T15:13:24;94013.75;;;6.83;74.80
55468;BME280;41332;42.702;23.200;2022-11-15T15:15:51;94019.75;;;6.84;75.33
55468;BME280;41332;42.702;23.200;2022-11-15T15:18:17;94016.50;;;6.78;75.60
55468;BME280;41332;42.702;23.200;2022-11-15T15:20:44;94012.63;;;6.75;75.93
55468;BME280;41332;42.702;23.200;2022-11-15T15:23:18;94014.19;;;6.76;75.53